Terminal Aerodrome Forecast
Issued by NWS Twin Cities, MN

Home | Current Version | Previous Version | Text Only | Print | Product List | Glossary Off
Versions: 1 2 3 4 5 6 7 8 9 10 11 12 13 14 15 16 17 18 19

000
FTUS43 KMPX 181100
TAFSTC
TAF
KSTC 181139Z 1812/1912 VRB03KT P6SM SCT020
      TEMPO 1812/1815 BKN020
     FM181600 15004KT P6SM SCT025 BKN090
     FM190600 17003KT P6SM OVC040=

USA.gov is the U.S. government's official web portal to all federal, state and local government web resources and services.